Time;durP1;ratioP1;P1;durP2;ratioP2;P2;SDS_P1;SDS_P2;PMS_P1;PMS_P2;Temp;Humidity;BMP_temperature;BMP_pressure;BME280_temperature;BME280_humidity;BME280_pressure;Samples;Min_cycle;Max_cycle;Signal;HPM_P1;HPM_P2
2023/06/05 00:00:21;;;;;;;;;;;;;;;14.16;59.71;102138.13;5103710;28;19923;-76
2023/06/05 00:02:49;;;;;;;;;;;;;;;14.09;61.45;102149.78;5114825;28;20284;-76
2023/06/05 00:05:15;;;;;;;;;;;;;;;14.01;61.33;102149.91;5104680;28;19946;-76
2023/06/05 00:07:40;;;;;;;;;;;;;;;13.94;60.41;102146.44;5113600;28;19977;-76
2023/06/05 00:10:07;;;;;;;;;;;;;;;13.90;60.02;102150.06;5114809;28;19977;-76
2023/06/05 00:12:32;;;;;;;;;;;;;;;13.86;61.29;102152.78;5114823;28;19995;-76
2023/06/05 00:14:57;;;;;;;;;;;;;;;13.84;58.57;102143.94;5095855;28;20539;-77
2023/06/05 00:17:24;;;;;;;;;;;;;;;13.80;61.60;102151.13;5106587;28;19932;-76
2023/06/05 00:19:49;;;;;;;;;;;;;;;13.76;61.93;102150.25;5113267;28;19941;-77
2023/06/05 00:22:15;;;;;;;;;;;;;;;13.75;61.47;102151.16;5113310;28;19923;-76
2023/06/05 00:24:40;;;;;;;;;;;;;;;13.71;62.17;102148.56;5114596;28;19916;-77
2023/06/05 00:27:06;;;;;;;;;;;;;;;13.67;59.41;102141.53;5114247;28;19915;-76
2023/06/05 00:29:31;;;;;;;;;;;;;;;13.61;60.68;102142.50;5112657;28;19951;-77
2023/06/05 00:31:56;;;;;;;;;;;;;;;13.57;60.72;102143.44;5114291;28;19927;-76
2023/06/05 00:34:22;;;;;;;;;;;;;;;13.57;60.77;102148.75;5112783;28;19927;-76
2023/06/05 00:36:50;;;;;;;;;;;;;;;13.53;60.31;102153.25;5114310;28;20296;-77
2023/06/05 00:39:16;;;;;;;;;;;;;;;13.50;61.98;102155.03;5112821;28;19924;-76
2023/06/05 00:41:41;;;;;;;;;;;;;;;13.44;63.01;102145.38;5095827;28;20015;-77
2023/06/05 00:44:07;;;;;;;;;;;;;;;13.41;62.12;102145.41;5113936;28;19920;-76
2023/06/05 00:46:33;;;;;;;;;;;;;;;13.36;63.74;102147.25;5114159;28;20374;-76
2023/06/05 00:48:59;;;;;;;;;;;;;;;13.32;61.43;102148.19;5113737;28;20339;-76
2023/06/05 00:51:24;;;;;;;;;;;;;;;13.24;62.37;102142.06;5114151;28;19926;-76
2023/06/05 00:53:50;;;;;;;;;;;;;;;13.20;63.77;102142.97;5112635;28;19919;-76
2023/06/05 00:56:20;;;;;;;;;;;;;;;13.18;63.38;102136.78;5112671;28;19983;-76
2023/06/05 00:58:46;;;;;;;;;;;;;;;13.13;64.23;102147.50;5102605;28;19920;-77
2023/06/05 01:01:12;;;;;;;;;;;;;;;13.08;63.95;102146.66;5112262;28;19927;-76
2023/06/05 01:03:39;;;;;;;;;;;;;;;13.04;64.41;102143.16;5108520;28;19920;-76
2023/06/05 01:06:05;;;;;;;;;;;;;;;12.98;64.54;102145.00;5106315;28;19974;-77
2023/06/05 01:08:44;;;;;;;;;;;;;;;12.93;65.54;102145.06;5113643;28;19969;-77
2023/06/05 01:11:31;;;;;;;;;;;;;;;12.88;65.37;102146.88;5112468;28;19922;-76
2023/06/05 01:14:12;;;;;;;;;;;;;;;12.85;63.49;102137.16;5112061;28;20363;-76
2023/06/05 01:16:37;;;;;;;;;;;;;;;12.84;64.62;102137.19;5105186;28;20356;-76
2023/06/05 01:19:04;;;;;;;;;;;;;;;12.80;64.69;102135.44;5113229;28;19951;-76
2023/06/05 01:21:30;;;;;;;;;;;;;;;12.74;66.87;102132.88;5106325;28;20352;-76
2023/06/05 01:23:56;;;;;;;;;;;;;;;12.72;66.98;102132.00;5113124;28;19919;-76
2023/06/05 01:26:26;;;;;;;;;;;;;;;12.72;64.67;102135.53;5114642;27;19965;-75
2023/06/05 01:28:52;;;;;;;;;;;;;;;12.66;64.75;102128.50;5126849;27;19916;-76
2023/06/05 01:31:20;;;;;;;;;;;;;;;12.61;66.23;102129.44;5113471;27;19919;-76
2023/06/05 01:33:56;;;;;;;;;;;;;;;12.57;67.85;102139.22;5112975;28;19980;-77
2023/06/05 01:36:22;;;;;;;;;;;;;;;12.53;67.04;102134.81;5112013;28;19920;-76
2023/06/05 01:38:48;;;;;;;;;;;;;;;12.47;67.40;102143.75;5112993;28;20007;-76
2023/06/05 01:41:14;;;;;;;;;;;;;;;12.41;65.93;102141.16;5128847;27;20578;-76
2023/06/05 01:43:40;;;;;;;;;;;;;;;12.36;67.33;102139.41;5094766;28;19964;-70
2023/06/05 01:46:08;;;;;;;;;;;;;;;12.34;67.93;102141.19;5112616;28;20018;-70
2023/06/05 01:48:34;;;;;;;;;;;;;;;12.31;67.29;102122.63;5107994;28;20465;-70
2023/06/05 01:51:00;;;;;;;;;;;;;;;12.29;68.17;102130.63;5109021;28;19919;-70
2023/06/05 01:53:27;;;;;;;;;;;;;;;12.29;67.22;102130.63;5112750;28;20374;-70
2023/06/05 01:55:53;;;;;;;;;;;;;;;12.30;68.10;102124.41;5111457;28;19924;-70
2023/06/05 01:58:21;;;;;;;;;;;;;;;12.26;67.51;102125.31;5105436;28;19922;-70
2023/06/05 02:00:46;;;;;;;;;;;;;;;12.21;66.14;102117.38;5111110;28;20373;-69
2023/06/05 02:03:15;;;;;;;;;;;;;;;12.17;67.33;102117.44;5112571;28;19962;-76
2023/06/05 02:05:41;;;;;;;;;;;;;;;12.13;68.43;102113.91;5111206;28;19928;-76
2023/06/05 02:08:09;;;;;;;;;;;;;;;12.12;67.02;102113.94;5112596;28;19916;-76
2023/06/05 02:10:35;;;;;;;;;;;;;;;12.11;67.95;102114.81;5111137;28;19914;-75
2023/06/05 02:13:01;;;;;;;;;;;;;;;12.10;67.54;102110.44;5111172;28;19951;-76
2023/06/05 02:15:28;;;;;;;;;;;;;;;12.09;68.64;102114.88;5111195;28;20341;-76
2023/06/05 02:17:54;;;;;;;;;;;;;;;12.07;68.70;102105.13;5111005;28;19924;-76
2023/06/05 02:20:21;;;;;;;;;;;;;;;12.03;68.46;102107.81;5111172;28;19920;-76
2023/06/05 02:22:49;;;;;;;;;;;;;;;12.00;68.03;102110.50;5112456;28;20389;-70
2023/06/05 02:25:15;;;;;;;;;;;;;;;11.98;69.52;102111.38;5112368;28;20401;-69
2023/06/05 02:27:41;;;;;;;;;;;;;;;11.94;68.73;102110.53;5110917;28;19966;-70
2023/06/05 02:30:06;;;;;;;;;;;;;;;11.88;68.42;102113.22;5110931;28;19920;-70
2023/06/05 02:32:32;;;;;;;;;;;;;;;11.81;70.56;102109.69;5112295;28;19963;-70
2023/06/05 02:34:58;;;;;;;;;;;;;;;11.80;68.74;102107.94;5077153;28;19916;-69
2023/06/05 02:37:28;;;;;;;;;;;;;;;11.76;70.29;102114.16;5110971;28;20031;-70
2023/06/05 02:39:53;;;;;;;;;;;;;;;11.74;71.22;102107.09;5112300;28;19916;-70
2023/06/05 02:42:19;;;;;;;;;;;;;;;11.71;70.23;102110.66;5110994;28;20385;-70
2023/06/05 02:44:45;;;;;;;;;;;;;;;11.69;69.98;102107.13;5127894;28;19920;-70
2023/06/05 02:47:12;;;;;;;;;;;;;;;11.66;70.17;102101.84;5127957;28;19926;-69
2023/06/05 02:49:37;;;;;;;;;;;;;;;11.63;68.41;102104.50;5121981;28;20293;-70
2023/06/05 02:52:03;;;;;;;;;;;;;;;11.58;70.79;102107.19;5112148;28;20036;-69
2023/06/05 02:54:28;;;;;;;;;;;;;;;11.53;69.77;102100.16;5127674;28;19920;-70
2023/06/05 02:57:00;;;;;;;;;;;;;;;11.48;66.10;102097.53;5110747;28;19920;-69
2023/06/05 02:59:27;;;;;;;;;;;;;;;11.45;68.64;102096.66;5108780;28;19919;-70
2023/06/05 03:01:53;;;;;;;;;;;;;;;11.42;69.92;102092.25;5111034;28;20029;-69
2023/06/05 03:04:20;;;;;;;;;;;;;;;11.42;72.43;102092.25;5093215;28;20094;-69
2023/06/05 03:06:50;;;;;;;;;;;;;;;11.39;71.13;102103.75;5127645;28;19923;-69
2023/06/05 03:09:19;;;;;;;;;;;;;;;11.39;72.83;102102.88;5127364;28;19916;-70
2023/06/05 03:11:44;;;;;;;;;;;;;;;11.38;70.54;102098.47;5110709;28;20374;-70
2023/06/05 03:14:10;;;;;;;;;;;;;;;11.35;71.48;102104.69;5127412;28;19919;-69
2023/06/05 03:16:43;;;;;;;;;;;;;;;11.34;71.03;102096.72;5124844;28;19923;-69
2023/06/05 03:19:11;;;;;;;;;;;;;;;11.29;73.54;102107.34;5110228;28;19916;-70
2023/06/05 03:21:39;;;;;;;;;;;;;;;11.27;70.11;102106.47;5127593;28;19916;-70
2023/06/05 03:24:06;;;;;;;;;;;;;;;11.22;74.20;102110.03;5127334;28;19920;-69
2023/06/05 03:26:32;;;;;;;;;;;;;;;11.21;72.47;102102.97;5127641;28;19966;-69
2023/06/05 03:28:58;;;;;;;;;;;;;;;11.18;72.53;102102.09;5105913;28;19919;-70
2023/06/05 03:31:27;;;;;;;;;;;;;;;11.14;71.47;102095.03;5113948;28;20014;-70
2023/06/05 03:33:52;;;;;;;;;;;;;;;11.11;71.62;102083.56;5113631;28;20049;-69
2023/06/05 03:36:18;;;;;;;;;;;;;;;11.10;71.01;102081.78;5130995;27;20000;-69
2023/06/05 03:38:46;;;;;;;;;;;;;;;11.07;71.27;102081.81;5130613;27;20070;-70
2023/06/05 03:41:12;;;;;;;;;;;;;;;11.04;71.03;102079.19;5131133;27;19988;-70
2023/06/05 03:43:37;;;;;;;;;;;;;;;11.00;74.34;102080.94;5114916;28;20358;-70
2023/06/05 03:46:04;;;;;;;;;;;;;;;10.97;72.66;102089.78;5113704;28;19924;-69
2023/06/05 03:48:29;;;;;;;;;;;;;;;10.93;70.62;102089.84;5113344;28;20362;-70
2023/06/05 03:50:57;;;;;;;;;;;;;;;10.91;70.96;102081.00;5096903;28;19919;-70
2023/06/05 03:53:23;;;;;;;;;;;;;;;10.88;73.70;102076.59;5130880;27;20014;-70
2023/06/05 03:55:49;;;;;;;;;;;;;;;10.86;73.29;102078.34;5113463;28;19994;-70
2023/06/05 03:58:20;;;;;;;;;;;;;;;10.83;73.11;102082.75;5113130;28;20390;-70
2023/06/05 04:00:48;;;;;;;;;;;;;;;10.81;74.40;102087.22;5096745;28;19938;-70
2023/06/05 04:03:15;;;;;;;;;;;;;;;10.81;76.42;102085.44;5113401;28;20308;-70
2023/06/05 04:05:41;;;;;;;;;;;;;;;10.85;74.70;102079.22;5113023;28;20297;-70
2023/06/05 04:08:06;;;;;;;;;;;;;;;10.84;74.89;102085.44;5114642;28;19973;-70
2023/06/05 04:10:32;;;;;;;;;;;;;;;10.84;73.61;102087.19;5114747;28;19959;-71
2023/06/05 04:12:58;;;;;;;;;;;;;;;10.86;73.63;102088.09;5113094;28;19920;-71
2023/06/05 04:15:24;;;;;;;;;;;;;;;10.87;74.04;102081.88;5130332;27;19923;-70
2023/06/05 04:17:50;;;;;;;;;;;;;;;10.87;72.60;102082.75;5095981;28;19924;-71
2023/06/05 04:20:16;;;;;;;;;;;;;;;10.87;75.74;102080.09;5113228;28;19926;-71
2023/06/05 04:22:43;;;;;;;;;;;;;;;10.88;75.16;102084.53;5129923;27;20389;-71
2023/06/05 04:25:12;;;;;;;;;;;;;;;10.88;74.67;102091.59;5130233;27;19935;-77
2023/06/05 04:27:38;;;;;;;;;;;;;;;10.88;74.70;102092.50;5096017;28;19924;-78
2023/06/05 04:30:07;;;;;;;;;;;;;;;10.88;72.88;102097.78;5113143;28;19920;-77
2023/06/05 04:32:34;;;;;;;;;;;;;;;10.90;78.69;102096.00;5129867;27;20002;-71
2023/06/05 04:35:01;;;;;;;;;;;;;;;10.91;76.39;102096.91;5095743;28;19924;-71
2023/06/05 04:37:26;;;;;;;;;;;;;;;10.93;76.36;102103.97;5112892;28;19915;-71
2023/06/05 04:39:52;;;;;;;;;;;;;;;10.95;76.50;102096.88;5113662;28;19943;-71
2023/06/05 04:42:17;;;;;;;;;;;;;;;10.95;76.43;102096.88;5112858;28;19912;-71
2023/06/05 04:44:53;;;;;;;;;;;;;;;10.96;78.60;102109.25;5095365;28;19920;-71
2023/06/05 04:47:18;;;;;;;;;;;;;;;10.97;75.55;102096.88;5114238;28;19981;-71
2023/06/05 04:49:47;;;;;;;;;;;;;;;11.00;76.67;102101.28;5091955;28;19974;-71
2023/06/05 04:52:14;;;;;;;;;;;;;;;11.03;74.38;102099.50;5095421;28;19939;-71
2023/06/05 04:54:40;;;;;;;;;;;;;;;11.06;77.97;102102.13;5113896;28;19967;-71
2023/06/05 04:57:06;;;;;;;;;;;;;;;11.09;75.24;102102.13;5092026;28;19920;-71
2023/06/05 04:59:32;;;;;;;;;;;;;;;11.13;77.53;102101.22;5107601;28;19920;-71
2023/06/05 05:01:58;;;;;;;;;;;;;;;11.17;79.47;102112.69;5108194;28;19915;-71
2023/06/05 05:04:23;;;;;;;;;;;;;;;11.19;78.92;102108.28;5108407;28;20598;-71
2023/06/05 05:06:51;;;;;;;;;;;;;;;11.25;77.07;102110.91;5095615;28;19959;-71
2023/06/05 05:09:17;;;;;;;;;;;;;;;11.31;78.78;102116.16;5112194;28;19920;-72
2023/06/05 05:11:43;;;;;;;;;;;;;;;11.34;78.05;102112.63;5113738;28;20002;-71
2023/06/05 05:14:08;;;;;;;;;;;;;;;11.39;77.83;102108.19;5111936;28;19966;-71
2023/06/05 05:16:34;;;;;;;;;;;;;;;11.44;76.91;102102.84;5112171;28;19919;-71
2023/06/05 05:18:59;;;;;;;;;;;;;;;11.52;76.44;102109.00;5111694;28;19919;-71
2023/06/05 05:21:25;;;;;;;;;;;;;;;11.55;77.45;102103.69;5111965;28;20410;-71
2023/06/05 05:23:51;;;;;;;;;;;;;;;11.59;75.79;102106.28;5095080;28;19920;-72
2023/06/05 05:26:17;;;;;;;;;;;;;;;11.62;75.70;102105.38;5111888;28;20028;-71
2023/06/05 05:28:42;;;;;;;;;;;;;;;11.67;75.81;102108.00;5111718;28;20219;-72
2023/06/05 05:31:09;;;;;;;;;;;;;;;11.74;74.46;102101.78;5129041;27;19924;-72
2023/06/05 05:33:35;;;;;;;;;;;;;;;11.78;74.87;102101.75;5111645;28;20002;-72
2023/06/05 05:36:02;;;;;;;;;;;;;;;11.84;76.76;102100.81;5095131;28;19919;-72
2023/06/05 05:38:28;;;;;;;;;;;;;;;11.88;75.74;102099.97;5128395;27;19916;-72
2023/06/05 05:40:53;;;;;;;;;;;;;;;11.91;76.56;102104.34;5128793;27;19920;-72
2023/06/05 05:43:19;;;;;;;;;;;;;;;11.96;74.15;102106.09;5094579;28;19919;-72
2023/06/05 05:45:45;;;;;;;;;;;;;;;12.00;76.43;102101.66;5111670;28;19924;-72
2023/06/05 05:48:11;;;;;;;;;;;;;;;12.05;73.47;102106.03;5108662;28;19935;-72
2023/06/05 05:50:36;;;;;;;;;;;;;;;12.10;76.12;102113.06;5106244;28;19968;-72
2023/06/05 05:53:03;;;;;;;;;;;;;;;12.10;75.17;102105.13;5103968;28;20400;-72
2023/06/05 05:55:28;;;;;;;;;;;;;;;12.14;74.42;102112.13;5105917;28;19915;-72
2023/06/05 05:57:54;;;;;;;;;;;;;;;12.18;75.34;102113.88;5104634;28;19943;-71
2023/06/05 06:00:20;;;;;;;;;;;;;;;12.22;75.88;102112.97;5110779;28;19915;-72
2023/06/05 06:02:47;;;;;;;;;;;;;;;12.27;75.28;102112.03;5094475;28;19924;-71
2023/06/05 06:05:12;;;;;;;;;;;;;;;12.33;74.82;102113.75;5110797;28;20274;-72
2023/06/05 06:07:40;;;;;;;;;;;;;;;12.40;74.29;102115.47;5094450;28;19935;-72
2023/06/05 06:10:05;;;;;;;;;;;;;;;12.52;70.24;102116.25;5093215;28;19927;-71
2023/06/05 06:12:31;;;;;;;;;;;;;;;12.64;74.06;102117.00;5092637;28;19935;-72
2023/06/05 06:14:56;;;;;;;;;;;;;;;12.73;73.24;102113.38;5093166;28;20031;-72
2023/06/05 06:17:22;;;;;;;;;;;;;;;12.82;73.70;102117.72;5097127;28;19916;-72
2023/06/05 06:19:48;;;;;;;;;;;;;;;12.89;71.84;102124.72;5092430;28;19923;-72
2023/06/05 06:22:14;;;;;;;;;;;;;;;12.94;71.98;102120.25;5096302;28;20386;-72
2023/06/05 06:24:40;;;;;;;;;;;;;;;13.02;72.47;102126.34;5111262;28;19931;-72
2023/06/05 06:27:06;;;;;;;;;;;;;;;13.11;71.33;102123.59;5111129;28;19916;-72
2023/06/05 06:29:32;;;;;;;;;;;;;;;13.20;72.51;102119.91;5093965;28;20276;-71
2023/06/05 06:31:57;;;;;;;;;;;;;;;13.27;71.63;102121.63;5091728;28;19923;-72
2023/06/05 06:34:24;;;;;;;;;;;;;;;13.34;70.86;102109.16;5102693;28;19924;-72
2023/06/05 06:36:50;;;;;;;;;;;;;;;13.39;71.14;102125.06;5112323;28;19924;-72
2023/06/05 06:39:15;;;;;;;;;;;;;;;13.48;70.59;102111.63;5110773;28;20018;-72
2023/06/05 06:41:41;;;;;;;;;;;;;;;13.59;70.21;102119.47;5097912;28;20005;-72
2023/06/05 06:44:06;;;;;;;;;;;;;;;13.69;70.26;102121.97;5110657;28;19951;-73
2023/06/05 06:46:32;;;;;;;;;;;;;;;13.82;69.77;102119.13;5112301;28;19927;-72
2023/06/05 06:48:57;;;;;;;;;;;;;;;13.91;69.55;102122.53;5111739;28;20022;-73
2023/06/05 06:51:22;;;;;;;;;;;;;;;14.04;69.36;102122.34;5101357;28;19939;-72
2023/06/05 06:53:48;;;;;;;;;;;;;;;14.13;68.01;102128.41;5107194;28;19915;-73
2023/06/05 06:56:15;;;;;;;;;;;;;;;14.21;67.73;102133.59;5110399;28;20363;-77
2023/06/05 06:58:41;;;;;;;;;;;;;;;14.30;67.36;102128.13;5109564;28;19935;-77
2023/06/05 07:01:06;;;;;;;;;;;;;;;14.41;67.08;102131.50;5111908;28;20332;-73
2023/06/05 07:03:31;;;;;;;;;;;;;;;14.52;66.89;102127.75;5112177;28;19912;-72
2023/06/05 07:05:57;;;;;;;;;;;;;;;14.66;66.59;102136.41;5114095;28;19920;-72
2023/06/05 07:08:22;;;;;;;;;;;;;;;14.74;64.94;102133.63;5094880;28;19920;-72
2023/06/05 07:10:48;;;;;;;;;;;;;;;14.82;65.06;102129.00;5106409;28;19934;-71
2023/06/05 07:13:13;;;;;;;;;;;;;;;14.91;63.73;102128.84;5115783;28;20386;-72
2023/06/05 07:15:38;;;;;;;;;;;;;;;14.97;63.90;102135.84;5111250;28;20390;-72
2023/06/05 07:18:04;;;;;;;;;;;;;;;15.06;64.18;102149.00;5095814;28;19920;-72
2023/06/05 07:20:30;;;;;;;;;;;;;;;15.18;63.78;102134.53;5115639;28;19920;-73
2023/06/05 07:22:55;;;;;;;;;;;;;;;15.27;63.77;102145.88;5115601;28;19916;-72
2023/06/05 07:25:24;;;;;;;;;;;;;;;15.38;62.62;102143.00;5115537;28;19919;-72
2023/06/05 07:27:50;;;;;;;;;;;;;;;15.44;62.42;102142.88;5115260;28;19927;-72
2023/06/05 07:30:15;;;;;;;;;;;;;;;15.56;62.43;102146.19;5114911;28;19920;-72
2023/06/05 07:32:42;;;;;;;;;;;;;;;15.67;62.38;102141.47;5114907;28;19923;-73
2023/06/05 07:35:08;;;;;;;;;;;;;;;15.84;62.52;102133.13;5115772;28;20034;-73
2023/06/05 07:37:33;;;;;;;;;;;;;;;15.95;61.22;102136.44;5114165;28;19919;-73
2023/06/05 07:39:59;;;;;;;;;;;;;;;16.02;61.16;102143.41;5114151;28;19924;-77
2023/06/05 07:42:24;;;;;;;;;;;;;;;16.09;60.46;102136.97;5115314;28;20389;-77
2023/06/05 07:44:50;;;;;;;;;;;;;;;16.14;60.23;102136.84;5113606;28;19915;-78
2023/06/05 07:47:16;;;;;;;;;;;;;;;16.20;60.35;102141.19;5115525;28;20002;-78
2023/06/05 07:49:41;;;;;;;;;;;;;;;16.31;59.93;102141.78;5113093;28;19966;-77
2023/06/05 07:52:07;;;;;;;;;;;;;;;16.38;59.42;102142.53;5115179;28;19915;-76
2023/06/05 07:54:32;;;;;;;;;;;;;;;16.43;59.18;102143.28;5098911;28;20023;-77
2023/06/05 07:56:58;;;;;;;;;;;;;;;16.53;59.16;102144.78;5100398;28;20358;-78
2023/06/05 07:59:27;;;;;;;;;;;;;;;16.65;58.55;102141.78;5109221;28;19923;-77
2023/06/05 08:01:54;;;;;;;;;;;;;;;16.73;57.95;102136.25;5110245;28;20366;-77
2023/06/05 08:04:19;;;;;;;;;;;;;;;16.80;57.91;102135.19;5094895;28;20065;-78
2023/06/05 08:06:45;;;;;;;;;;;;;;;16.91;57.89;102134.88;5126681;27;20442;-77
2023/06/05 08:09:11;;;;;;;;;;;;;;;17.03;57.43;102136.34;5114302;28;20294;-73
2023/06/05 08:11:38;;;;;;;;;;;;;;;17.11;57.49;102129.88;5114509;28;19915;-73
2023/06/05 08:14:05;;;;;;;;;;;;;;;17.23;57.37;102125.06;5114231;28;19919;-74
2023/06/05 08:16:31;;;;;;;;;;;;;;;17.34;56.99;102129.19;5113394;28;19912;-71
2023/06/05 08:18:57;;;;;;;;;;;;;;;17.48;57.13;102125.22;5099962;28;19927;-71
2023/06/05 08:21:22;;;;;;;;;;;;;;;17.59;56.02;102120.41;5102499;28;19923;-71
2023/06/05 08:23:47;;;;;;;;;;;;;;;17.69;56.25;102118.34;5096381;28;19920;-71
2023/06/05 08:26:13;;;;;;;;;;;;;;;17.83;55.21;102114.31;5087327;28;20011;-72
2023/06/05 08:28:39;;;;;;;;;;;;;;;17.89;54.85;102121.28;5107046;28;19927;-72
2023/06/05 08:31:05;;;;;;;;;;;;;;;17.99;54.89;102112.00;5102643;28;19923;-73
2023/06/05 08:33:31;;;;;;;;;;;;;;;18.09;54.86;102117.94;5093487;28;19916;-73
2023/06/05 08:35:57;;;;;;;;;;;;;;;18.24;55.25;102116.56;5119537;27;19916;-73
2023/06/05 08:38:22;;;;;;;;;;;;;;;18.35;54.05;102101.00;5112164;28;19965;-74
2023/06/05 08:40:51;;;;;;;;;;;;;;;18.49;54.20;102105.88;5117235;27;19943;-76
2023/06/05 08:43:16;;;;;;;;;;;;;;;18.60;53.46;102106.38;5114059;28;19912;-79
2023/06/05 08:45:42;;;;;;;;;;;;;;;18.66;53.22;102095.41;5114156;28;19946;-75
2023/06/05 08:48:10;;;;;;;;;;;;;;;18.72;53.04;102107.75;5112278;27;19950;-75
2023/06/05 08:50:37;;;;;;;;;;;;;;;18.83;53.67;102102.91;5105363;28;20294;-76
2023/06/05 08:53:02;;;;;;;;;;;;;;;18.98;53.29;102097.91;5107694;28;19922;-76
2023/06/05 08:55:28;;;;;;;;;;;;;;;19.10;52.52;102103.69;5099666;28;19920;-76
2023/06/05 08:57:53;;;;;;;;;;;;;;;19.22;52.51;102096.13;5111432;28;19915;-75
2023/06/05 09:00:19;;;;;;;;;;;;;;;19.33;52.91;102104.63;5103144;28;20376;-75
2023/06/05 09:02:47;;;;;;;;;;;;;;;19.52;52.34;102099.41;5075048;28;20401;-75
2023/06/05 09:05:16;;;;;;;;;;;;;;;19.68;51.90;102095.22;5097814;28;19928;-75
2023/06/05 09:07:42;;;;;;;;;;;;;;;19.84;51.21;102100.84;5103199;28;19927;-75
2023/06/05 09:10:21;;;;;;;;;;;;;;;19.90;50.90;102103.28;5108244;28;19916;-76
2023/06/05 09:12:56;;;;;;;;;;;;;;;19.94;50.93;102102.22;5104557;28;19927;-72
2023/06/05 09:15:25;;;;;;;;;;;;;;;20.08;50.51;102098.06;5115034;27;19919;-72
2023/06/05 09:18:10;;;;;;;;;;;;;;;20.24;50.24;102096.50;5099185;28;19965;-71
2023/06/05 09:20:40;;;;;;;;;;;;;;;20.40;49.84;102092.22;5100625;28;19920;-72
2023/06/05 09:23:26;;;;;;;;;;;;;;;20.51;49.20;102093.56;5113417;28;19916;-72
2023/06/05 09:25:52;;;;;;;;;;;;;;;20.60;48.54;102088.69;5113074;28;19919;-71
2023/06/05 09:28:17;;;;;;;;;;;;;;;20.72;49.40;102092.66;5112783;28;20402;-71
2023/06/05 09:30:56;;;;;;;;;;;;;;;20.88;49.07;102092.84;5113458;28;19980;-72
2023/06/05 09:33:23;;;;;;;;;;;;;;;21.01;48.66;102077.84;5113016;28;19912;-72
2023/06/05 09:36:00;;;;;;;;;;;;;;;21.14;48.16;102080.88;5113230;28;19916;-72
2023/06/05 09:38:30;;;;;;;;;;;;;;;21.19;47.79;102076.16;5111816;28;19955;-72
2023/06/05 09:41:02;;;;;;;;;;;;;;;21.25;47.62;102081.22;5113275;28;19916;-71
2023/06/05 09:43:28;;;;;;;;;;;;;;;21.40;47.28;102073.41;5113039;28;19915;-71
2023/06/05 09:45:53;;;;;;;;;;;;;;;21.49;47.64;102070.28;5111865;28;20357;-70
2023/06/05 09:48:19;;;;;;;;;;;;;;;21.65;46.41;102081.19;5111296;28;19928;-71
2023/06/05 09:50:45;;;;;;;;;;;;;;;21.77;46.26;102077.00;5113132;28;20371;-70
2023/06/05 09:53:12;;;;;;;;;;;;;;;21.85;46.03;102074.81;5111322;28;19923;-71
2023/06/05 09:55:38;;;;;;;;;;;;;;;21.91;45.71;102071.81;5113023;28;19938;-72
2023/06/05 09:58:10;;;;;;;;;;;;;;;21.96;46.62;102072.47;5105566;28;19924;-71
2023/06/05 10:00:38;;;;;;;;;;;;;;;22.14;45.88;102070.66;5104172;28;19920;-72
2023/06/05 10:03:07;;;;;;;;;;;;;;;22.25;45.88;102064.72;5110034;28;19920;-71
2023/06/05 10:05:34;;;;;;;;;;;;;;;22.39;45.83;102067.59;5111359;28;19959;-71
2023/06/05 10:08:00;;;;;;;;;;;;;;;22.61;44.90;102070.03;5112819;28;20397;-72
2023/06/05 10:10:25;;;;;;;;;;;;;;;22.70;45.06;102072.25;5112647;28;19916;-71
2023/06/05 10:12:56;;;;;;;;;;;;;;;22.73;43.73;102066.66;5112674;28;20143;-72
2023/06/05 10:15:21;;;;;;;;;;;;;;;22.79;44.92;102059.19;5110835;28;20395;-71
2023/06/05 10:17:47;;;;;;;;;;;;;;;22.89;44.62;102055.91;5112233;28;19961;-71
2023/06/05 10:20:13;;;;;;;;;;;;;;;23.02;44.11;102061.56;5112153;28;19915;-71
2023/06/05 10:22:41;;;;;;;;;;;;;;;23.13;43.82;102055.56;5110942;28;19928;-72
2023/06/05 10:25:08;;;;;;;;;;;;;;;23.24;43.19;102060.34;5110889;28;19916;-72
2023/06/05 10:27:50;;;;;;;;;;;;;;;23.37;43.44;102053.31;5111974;28;20400;-72
2023/06/05 10:30:27;;;;;;;;;;;;;;;23.49;43.05;102059.84;5112211;28;19916;-72
2023/06/05 10:32:59;;;;;;;;;;;;;;;23.61;43.56;102053.72;5111965;28;19964;-72
2023/06/05 10:35:43;;;;;;;;;;;;;;;23.80;43.08;102050.88;5112174;28;20033;-72
2023/06/05 10:38:11;;;;;;;;;;;;;;;24.02;42.78;102051.34;5113621;28;19981;-72
2023/06/05 10:40:37;;;;;;;;;;;;;;;24.15;42.25;102042.50;5102159;28;19976;-72
2023/06/05 10:43:21;;;;;;;;;;;;;;;24.30;42.97;102046.09;5116368;28;19915;-72
2023/06/05 10:45:47;;;;;;;;;;;;;;;24.49;42.70;102045.91;5100975;28;19998;-73
2023/06/05 10:48:12;;;;;;;;;;;;;;;24.54;41.26;102041.06;5114701;28;20020;-72
2023/06/05 10:50:37;;;;;;;;;;;;;;;24.59;41.45;102041.66;5115091;28;19916;-72
2023/06/05 10:53:03;;;;;;;;;;;;;;;24.73;41.41;102044.38;5131822;27;19980;-72
2023/06/05 10:55:40;;;;;;;;;;;;;;;24.84;41.19;102043.69;5115877;28;19920;-72
2023/06/05 10:58:16;;;;;;;;;;;;;;;24.96;41.31;102042.91;5108165;28;19924;-72
2023/06/05 11:01:00;;;;;;;;;;;;;;;25.14;40.47;102035.44;5113192;28;20380;-72
2023/06/05 11:03:52;;;;;;;;;;;;;;;25.19;40.66;102037.88;5115606;28;20231;-72
2023/06/05 11:06:17;;;;;;;;;;;;;;;25.25;40.73;102032.94;5102712;28;19927;-72
2023/06/05 11:08:42;;;;;;;;;;;;;;;25.39;40.61;102036.59;5097551;28;19919;-72
2023/06/05 11:11:12;;;;;;;;;;;;;;;25.66;41.21;102028.47;5115655;28;20358;-72
2023/06/05 11:13:56;;;;;;;;;;;;;;;25.91;39.93;102033.13;5114358;28;20391;-72
2023/06/05 11:16:25;;;;;;;;;;;;;;;26.11;39.60;102024.53;5110655;28;20006;-72
2023/06/05 11:18:50;;;;;;;;;;;;;;;26.20;39.14;102020.28;5115563;28;19916;-72
2023/06/05 11:21:16;;;;;;;;;;;;;;;26.22;39.42;102015.63;5093903;28;20271;-72
2023/06/05 11:24:01;;;;;;;;;;;;;;;26.45;40.68;102018.56;5097236;28;19920;-73
2023/06/05 11:26:40;;;;;;;;;;;;;;;26.64;37.21;102018.19;5115409;28;20234;-73
2023/06/05 11:29:10;;;;;;;;;;;;;;;26.63;37.50;102013.69;5115338;28;19940;-73
2023/06/05 11:31:36;;;;;;;;;;;;;;;26.68;37.92;102012.41;5115692;28;20307;-72
2023/06/05 11:34:01;;;;;;;;;;;;;;;26.68;36.41;102017.84;5115215;28;19945;-73
2023/06/05 11:36:26;;;;;;;;;;;;;;;26.59;36.42;102008.50;5115168;28;20014;-72
2023/06/05 11:38:53;;;;;;;;;;;;;;;26.62;37.87;102014.69;5114757;28;19916;-71
2023/06/05 11:41:19;;;;;;;;;;;;;;;26.73;38.53;102012.06;5115328;28;19973;-72
2023/06/05 11:43:45;;;;;;;;;;;;;;;26.94;36.80;102010.53;5115045;28;20312;-72
2023/06/05 11:46:11;;;;;;;;;;;;;;;26.97;36.68;102007.56;5115422;28;19942;-71
2023/06/05 11:48:42;;;;;;;;;;;;;;;27.09;36.73;101999.50;5113528;28;19916;-72
2023/06/05 11:51:08;;;;;;;;;;;;;;;27.29;35.68;102001.66;5114288;28;20410;-72
2023/06/05 11:53:33;;;;;;;;;;;;;;;27.40;35.15;101999.00;5096079;28;19924;-72
2023/06/05 11:56:06;;;;;;;;;;;;;;;27.49;36.51;101992.00;5104045;28;20374;-72
2023/06/05 11:58:37;;;;;;;;;;;;;;;27.56;36.71;101996.00;5112644;28;19927;-72
2023/06/05 12:01:12;;;;;;;;;;;;;;;27.57;35.58;101991.41;5096574;28;19966;-72
2023/06/05 12:03:39;;;;;;;;;;;;;;;27.69;36.36;101995.06;5108021;28;19923;-72
2023/06/05 12:06:04;;;;;;;;;;;;;;;27.88;34.36;101985.41;5101655;28;19945;-71
2023/06/05 12:08:33;;;;;;;;;;;;;;;28.02;35.33;101987.06;5114420;28;19916;-71
2023/06/05 12:10:59;;;;;;;;;;;;;;;28.00;33.37;101985.44;5114966;28;19945;-72
2023/06/05 12:13:43;;;;;;;;;;;;;;;27.92;35.14;101986.03;5114536;28;19916;-77
2023/06/05 12:16:08;;;;;;;;;;;;;;;28.00;35.49;101980.00;5113330;28;20006;-78
2023/06/05 12:18:34;;;;;;;;;;;;;;;28.25;36.69;101974.34;5114490;28;20010;-78
2023/06/05 12:20:59;;;;;;;;;;;;;;;28.52;34.95;101970.47;5114583;28;19919;-78
2023/06/05 12:23:25;;;;;;;;;;;;;;;28.66;33.61;101970.22;5114543;28;19919;-79
2023/06/05 12:26:01;;;;;;;;;;;;;;;28.74;35.09;101969.59;5114399;28;19919;-78
2023/06/05 12:28:27;;;;;;;;;;;;;;;28.71;33.18;101970.72;5110805;28;19919;-77
2023/06/05 12:30:53;;;;;;;;;;;;;;;28.59;34.21;101970.84;5113330;28;19919;-78
2023/06/05 12:33:19;;;;;;;;;;;;;;;28.61;33.28;101967.00;5112474;28;19926;-78
2023/06/05 12:35:45;;;;;;;;;;;;;;;28.72;31.83;101966.13;5102041;28;19958;-78